Time;durP1;ratioP1;P1;durP2;ratioP2;P2;SDS_P1;SDS_P2;PMS_P1;PMS_P2;Temp;Humidity;BMP_temperature;BMP_pressure;BME280_temperature;BME280_humidity;BME280_pressure;Samples;Min_cycle;Max_cycle;Signal;HPM_P1;HPM_P2
2022/07/25 00:01:09;;;;;;;6.30;5.43;;;23.00;99.90;;;;;;5111655;28;20223;-64
2022/07/25 00:03:36;;;;;;;7.40;5.20;;;22.90;99.90;;;;;;5111844;28;20252;-64
2022/07/25 00:06:03;;;;;;;8.47;5.80;;;23.00;99.90;;;;;;5115095;28;20215;-63
2022/07/25 00:08:31;;;;;;;7.27;5.73;;;23.00;99.90;;;;;;5115828;28;20207;-63
2022/07/25 00:10:58;;;;;;;5.80;5.20;;;22.90;99.90;;;;;;5115271;27;20239;-63
2022/07/25 00:13:24;;;;;;;5.97;5.27;;;22.90;99.90;;;;;;5115453;28;20227;-63
2022/07/25 00:15:51;;;;;;;6.33;5.70;;;22.90;99.90;;;;;;5115235;28;20199;-64
2022/07/25 00:18:17;;;;;;;7.03;5.93;;;22.90;99.90;;;;;;5115088;28;20211;-65
2022/07/25 00:20:44;;;;;;;7.17;5.47;;;22.80;99.90;;;;;;5115396;28;20231;-64
2022/07/25 00:23:11;;;;;;;6.93;5.43;;;22.80;99.90;;;;;;5115398;28;20253;-63
2022/07/25 00:25:39;;;;;;;6.93;5.63;;;22.80;99.90;;;;;;5115333;28;20214;-63
2022/07/25 00:28:05;;;;;;;8.80;6.37;;;22.70;99.90;;;;;;5115053;28;20200;-63
2022/07/25 00:30:32;;;;;;;5.93;5.17;;;22.70;99.90;;;;;;5115129;28;20227;-63
2022/07/25 00:32:59;;;;;;;6.10;5.33;;;22.70;99.90;;;;;;5115022;28;20627;-63
2022/07/25 00:35:26;;;;;;;6.33;5.60;;;22.70;99.90;;;;;;5115327;28;20210;-63
2022/07/25 00:37:52;;;;;;;6.07;5.27;;;22.60;99.90;;;;;;5114582;28;20727;-63
2022/07/25 00:40:19;;;;;;;6.60;5.77;;;22.60;99.90;;;;;;5115105;28;20223;-62
2022/07/25 00:42:47;;;;;;;6.93;5.93;;;22.60;99.90;;;;;;5114831;28;20790;-62
2022/07/25 00:45:14;;;;;;;7.20;5.70;;;22.60;99.90;;;;;;5114991;28;20207;-63
2022/07/25 00:47:40;;;;;;;6.77;5.43;;;22.50;99.90;;;;;;5114341;27;20199;-63
2022/07/25 00:50:08;;;;;;;6.10;5.40;;;22.50;99.90;;;;;;5114910;27;20231;-63
2022/07/25 00:52:35;;;;;;;7.73;5.63;;;22.50;99.90;;;;;;5114648;28;20677;-63
2022/07/25 00:55:02;;;;;;;9.13;5.77;;;22.50;99.90;;;;;;5114595;28;20228;-63
2022/07/25 00:57:28;;;;;;;7.77;6.20;;;22.50;99.90;;;;;;5114369;28;20226;-63
2022/07/25 00:59:56;;;;;;;9.10;5.73;;;22.50;99.90;;;;;;5114565;28;20224;-63
2022/07/25 01:02:23;;;;;;;7.23;5.23;;;22.40;99.90;;;;;;5114671;28;20212;-63
2022/07/25 01:04:50;;;;;;;6.73;5.60;;;22.40;99.90;;;;;;5114536;28;20261;-62
2022/07/25 01:07:17;;;;;;;8.00;5.60;;;22.40;99.90;;;;;;5114241;28;20208;-63
2022/07/25 01:09:43;;;;;;;10.97;5.90;;;22.40;99.90;;;;;;5114318;28;20227;-63
2022/07/25 01:12:10;;;;;;;7.70;6.30;;;22.30;99.90;;;;;;5114209;28;20207;-63
2022/07/25 01:14:37;;;;;;;7.20;5.23;;;22.30;99.90;;;;;;5113989;28;20682;-63
2022/07/25 01:17:05;;;;;;;6.60;5.40;;;22.20;99.90;;;;;;5112839;28;20210;-62
2022/07/25 01:19:31;;;;;;;6.40;5.10;;;22.20;99.90;;;;;;5114100;28;20322;-63
2022/07/25 01:22:00;;;;;;;7.47;5.70;;;22.20;99.90;;;;;;5114155;27;20629;-63
2022/07/25 01:24:27;;;;;;;6.73;5.67;;;22.10;99.90;;;;;;5114134;28;20207;-63
2022/07/25 01:26:53;;;;;;;8.47;5.63;;;22.10;99.90;;;;;;5113617;28;20207;-63
2022/07/25 01:29:20;;;;;;;8.03;5.67;;;22.00;99.90;;;;;;5113727;28;20566;-63
2022/07/25 01:31:47;;;;;;;6.30;5.70;;;22.00;99.90;;;;;;5114004;28;20211;-63
2022/07/25 01:34:14;;;;;;;9.67;5.77;;;22.00;99.90;;;;;;5113964;28;20287;-63
2022/07/25 01:36:40;;;;;;;5.80;5.17;;;22.00;99.90;;;;;;5113576;28;20204;-63
2022/07/25 01:39:08;;;;;;;6.07;5.47;;;22.00;99.90;;;;;;5113765;28;20214;-63
2022/07/25 01:41:36;;;;;;;6.67;5.60;;;22.00;99.90;;;;;;5113684;27;20200;-63
2022/07/25 01:44:02;;;;;;;6.53;5.23;;;21.90;99.90;;;;;;5113488;28;20290;-63
2022/07/25 01:46:29;;;;;;;11.00;5.60;;;21.80;99.90;;;;;;5113789;28;20226;-63
2022/07/25 01:48:56;;;;;;;7.63;5.60;;;21.80;99.90;;;;;;5113630;28;20208;-63
2022/07/25 01:51:22;;;;;;;7.87;5.50;;;21.80;99.90;;;;;;5113593;28;20200;-63
2022/07/25 01:53:49;;;;;;;7.47;5.37;;;21.80;99.90;;;;;;5113472;28;20219;-63
2022/07/25 01:56:17;;;;;;;6.00;5.37;;;21.70;99.90;;;;;;5113149;28;20584;-65
2022/07/25 01:58:44;;;;;;;6.73;5.00;;;21.70;99.90;;;;;;5113420;28;20211;-63
2022/07/25 02:01:10;;;;;;;5.87;5.27;;;21.70;99.90;;;;;;5113394;28;20261;-63
2022/07/25 02:03:37;;;;;;;8.13;5.83;;;21.70;99.90;;;;;;5113580;28;20215;-63
2022/07/25 02:06:06;;;;;;;7.43;5.60;;;21.60;99.90;;;;;;5113245;28;20252;-62
2022/07/25 02:08:33;;;;;;;8.50;5.30;;;21.60;99.90;;;;;;5113460;28;20689;-62
2022/07/25 02:11:00;;;;;;;7.40;5.53;;;21.60;99.90;;;;;;5113471;28;20713;-62
2022/07/25 02:13:28;;;;;;;6.93;5.40;;;21.60;99.90;;;;;;5113333;28;20210;-62
2022/07/25 02:15:55;;;;;;;8.10;6.07;;;21.50;99.90;;;;;;5112899;28;20228;-63
2022/07/25 02:18:22;;;;;;;7.63;6.03;;;21.50;99.90;;;;;;5113295;28;20211;-63
2022/07/25 02:20:48;;;;;;;8.37;5.93;;;21.50;99.90;;;;;;5112957;28;20227;-63
2022/07/25 02:23:15;;;;;;;6.33;5.37;;;21.50;99.90;;;;;;5113131;28;20207;-63
2022/07/25 02:25:41;;;;;;;6.60;5.57;;;21.50;99.90;;;;;;5112792;28;20203;-63
2022/07/25 02:28:08;;;;;;;6.53;5.20;;;21.50;99.90;;;;;;5112560;28;20244;-62
2022/07/25 02:30:36;;;;;;;7.67;5.60;;;21.40;99.90;;;;;;5112861;28;20261;-62
2022/07/25 02:33:03;;;;;;;6.60;5.27;;;21.40;99.90;;;;;;5112869;28;20203;-64
2022/07/25 02:35:30;;;;;;;8.37;5.20;;;21.50;99.90;;;;;;5112809;28;20223;-63
2022/07/25 02:37:56;;;;;;;7.70;5.23;;;21.50;99.90;;;;;;5112146;28;20204;-62
2022/07/25 02:40:23;;;;;;;6.33;5.73;;;21.50;99.90;;;;;;5112590;28;20227;-62
2022/07/25 02:42:50;;;;;;;8.27;5.67;;;21.50;99.90;;;;;;5112731;28;20260;-63
2022/07/25 02:45:16;;;;;;;7.63;5.30;;;21.50;99.90;;;;;;5112722;28;20558;-63
2022/07/25 02:47:44;;;;;;;7.83;5.30;;;21.50;99.90;;;;;;5112560;28;20200;-64
2022/07/25 02:50:11;;;;;;;7.60;5.80;;;21.50;99.90;;;;;;5112594;28;20978;-63
2022/07/25 02:52:38;;;;;;;7.17;5.53;;;21.50;99.90;;;;;;5112658;28;20218;-63
2022/07/25 02:55:06;;;;;;;7.27;5.73;;;21.50;99.90;;;;;;5113032;28;20231;-63
2022/07/25 02:57:32;;;;;;;7.73;5.23;;;21.50;99.90;;;;;;5112430;28;20582;-63
2022/07/25 02:59:59;;;;;;;6.43;5.70;;;21.50;99.90;;;;;;5112573;28;20227;-63
2022/07/25 03:02:26;;;;;;;6.90;5.20;;;21.40;99.90;;;;;;5112471;28;20207;-63
2022/07/25 03:04:54;;;;;;;6.67;5.80;;;21.40;99.90;;;;;;5112517;28;20199;-64
2022/07/25 03:07:20;;;;;;;6.83;5.17;;;21.40;99.90;;;;;;5111873;28;20204;-62
2022/07/25 03:09:47;;;;;;;6.50;5.00;;;21.30;99.90;;;;;;5112238;28;20717;-63
2022/07/25 03:12:14;;;;;;;6.27;5.20;;;21.30;99.90;;;;;;5112222;28;20199;-62
2022/07/25 03:14:40;;;;;;;7.40;5.50;;;21.30;99.90;;;;;;5112246;28;20269;-63
2022/07/25 03:17:07;;;;;;;7.57;4.63;;;21.30;99.90;;;;;;5111856;28;20211;-64
2022/07/25 03:19:34;;;;;;;12.73;5.87;;;21.30;99.90;;;;;;5112145;28;20231;-64
2022/07/25 03:22:01;;;;;;;9.03;5.67;;;21.30;99.90;;;;;;5112198;28;20256;-62
2022/07/25 03:24:28;;;;;;;6.93;5.67;;;21.30;99.90;;;;;;5112388;28;20210;-61
2022/07/25 03:26:55;;;;;;;10.03;5.30;;;21.30;99.90;;;;;;5111751;28;20207;-62
2022/07/25 03:29:21;;;;;;;6.43;5.17;;;21.30;99.90;;;;;;5111976;28;20277;-61
2022/07/25 03:31:48;;;;;;;7.67;5.20;;;21.30;99.90;;;;;;5112092;28;20243;-62
2022/07/25 03:34:15;;;;;;;7.77;4.87;;;21.20;99.90;;;;;;5111816;28;20735;-65
2022/07/25 03:36:41;;;;;;;7.50;5.50;;;21.20;99.90;;;;;;5111873;28;20207;-64
2022/07/25 03:39:09;;;;;;;9.10;5.53;;;21.20;99.90;;;;;;5112433;28;20212;-62
2022/07/25 03:41:36;;;;;;;7.50;4.93;;;21.20;99.90;;;;;;5116149;28;20207;-63
2022/07/25 03:44:03;;;;;;;7.40;5.53;;;21.10;99.90;;;;;;5115970;28;20200;-64
2022/07/25 03:46:29;;;;;;;6.57;5.20;;;21.10;99.90;;;;;;5115589;27;20211;-64
2022/07/25 03:48:56;;;;;;;7.93;5.00;;;21.10;99.90;;;;;;5115601;28;20673;-64
2022/07/25 03:51:23;;;;;;;6.30;4.80;;;21.10;99.90;;;;;;5115951;28;20199;-64
2022/07/25 03:54:02;;;;;;;10.60;6.33;;;21.10;99.90;;;;;;5115979;28;20215;-64
2022/07/25 03:56:32;;;;;;;10.43;6.20;;;21.20;99.90;;;;;;5115649;28;20596;-64
2022/07/25 03:58:59;;;;;;;8.10;5.43;;;21.20;99.90;;;;;;5115473;28;20200;-64
2022/07/25 04:01:25;;;;;;;7.10;5.20;;;21.20;99.90;;;;;;5115610;28;20210;-64
2022/07/25 04:03:52;;;;;;;7.10;5.47;;;21.20;99.90;;;;;;5115786;27;20260;-64
2022/07/25 04:06:19;;;;;;;8.13;5.37;;;21.20;99.90;;;;;;5115153;28;20199;-62
2022/07/25 04:08:46;;;;;;;5.77;4.73;;;21.30;99.90;;;;;;5115512;28;20687;-63
2022/07/25 04:11:12;;;;;;;7.23;5.47;;;21.30;99.90;;;;;;5115409;28;20232;-63
2022/07/25 04:13:41;;;;;;;6.97;5.10;;;21.40;99.90;;;;;;5115630;28;20207;-63
2022/07/25 04:16:08;;;;;;;6.90;5.10;;;21.40;99.90;;;;;;5114925;28;20227;-63
2022/07/25 04:18:35;;;;;;;6.93;5.53;;;21.50;99.90;;;;;;5115545;28;20638;-63
2022/07/25 04:21:02;;;;;;;6.87;5.43;;;21.60;99.90;;;;;;5115458;28;20781;-63
2022/07/25 04:23:28;;;;;;;7.97;5.20;;;21.60;99.90;;;;;;5115615;27;20272;-62
2022/07/25 04:25:55;;;;;;;6.03;5.37;;;21.70;99.90;;;;;;5114919;28;20207;-63
2022/07/25 04:28:22;;;;;;;5.90;4.70;;;21.80;99.90;;;;;;5115021;28;20666;-60
2022/07/25 04:30:50;;;;;;;7.30;4.70;;;21.90;99.90;;;;;;5115243;28;20228;-59
2022/07/25 04:33:17;;;;;;;9.50;5.27;;;21.90;99.90;;;;;;5115162;28;20207;-60
2022/07/25 04:35:44;;;;;;;5.57;4.90;;;22.00;99.90;;;;;;5115106;28;20273;-60
2022/07/25 04:38:11;;;;;;;7.60;5.47;;;22.20;99.90;;;;;;5114469;28;20753;-60
2022/07/25 04:40:38;;;;;;;5.80;4.77;;;22.30;99.90;;;;;;5114901;27;20223;-60
2022/07/25 04:43:05;;;;;;;7.70;5.13;;;22.40;99.90;;;;;;5114690;28;20212;-60
2022/07/25 04:45:33;;;;;;;9.20;5.10;;;22.40;99.90;;;;;;5115104;28;20199;-59
2022/07/25 04:48:01;;;;;;;6.20;5.20;;;22.50;99.90;;;;;;5112538;28;20966;-61
2022/07/25 04:50:29;;;;;;;11.43;5.33;;;22.60;99.90;;;;;;5113302;28;20665;-60
2022/07/25 04:52:55;;;;;;;8.00;5.17;;;22.60;99.90;;;;;;5114280;27;20207;-59
2022/07/25 04:55:22;;;;;;;5.13;4.63;;;22.60;99.90;;;;;;5114368;28;20220;-60
2022/07/25 04:57:49;;;;;;;5.80;5.13;;;22.70;99.90;;;;;;5114310;28;20211;-60
2022/07/25 05:00:16;;;;;;;6.60;5.13;;;22.80;99.90;;;;;;5114391;28;20231;-60
2022/07/25 05:02:43;;;;;;;6.97;5.07;;;22.80;99.90;;;;;;5114549;28;20203;-60
2022/07/25 05:05:11;;;;;;;5.53;4.83;;;22.90;99.90;;;;;;5114222;28;20316;-59
2022/07/25 05:07:38;;;;;;;6.90;4.87;;;22.90;99.90;;;;;;5113937;28;20203;-60
2022/07/25 05:10:05;;;;;;;6.07;4.97;;;23.00;99.90;;;;;;5113930;28;20234;-60
2022/07/25 05:12:32;;;;;;;5.97;5.37;;;23.10;99.90;;;;;;5114425;28;20204;-60
2022/07/25 05:14:58;;;;;;;6.40;5.20;;;23.20;99.90;;;;;;5114009;28;20216;-60
2022/07/25 05:17:25;;;;;;;6.50;5.23;;;23.20;99.90;;;;;;5114113;28;20625;-60
2022/07/25 05:19:52;;;;;;;6.70;5.10;;;23.20;99.90;;;;;;5113829;28;20235;-60
2022/07/25 05:22:20;;;;;;;5.87;4.93;;;23.30;99.90;;;;;;5113508;28;20204;-62
2022/07/25 05:24:46;;;;;;;7.43;5.10;;;23.30;99.90;;;;;;5113896;28;20208;-62
2022/07/25 05:27:14;;;;;;;8.97;5.30;;;23.40;99.90;;;;;;5109106;28;20208;-61
2022/07/25 05:29:40;;;;;;;7.03;5.60;;;23.40;99.90;;;;;;5104499;28;20227;-62
2022/07/25 05:32:07;;;;;;;5.70;5.10;;;23.50;99.90;;;;;;5112295;28;20203;-61
2022/07/25 05:34:34;;;;;;;6.37;5.07;;;23.60;99.90;;;;;;5113339;28;20208;-61
2022/07/25 05:37:01;;;;;;;5.73;4.93;;;23.60;99.90;;;;;;5112549;27;20208;-61
2022/07/25 05:39:29;;;;;;;5.90;4.97;;;23.70;99.90;;;;;;5112932;28;20318;-59
2022/07/25 05:41:55;;;;;;;6.50;5.10;;;23.70;99.90;;;;;;5113205;27;20203;-60
2022/07/25 05:44:22;;;;;;;6.67;5.30;;;23.80;99.90;;;;;;5113210;27;20203;-60
2022/07/25 05:46:49;;;;;;;6.40;5.17;;;23.90;99.90;;;;;;5112721;27;20600;-59
2022/07/25 05:49:15;;;;;;;6.03;4.73;;;23.90;99.90;;;;;;5111241;28;20637;-59
2022/07/25 05:51:42;;;;;;;8.20;5.30;;;24.00;99.90;;;;;;5112653;28;20200;-60
2022/07/25 05:54:09;;;;;;;6.10;4.93;;;24.00;99.90;;;;;;5112639;28;20204;-60
2022/07/25 05:56:37;;;;;;;6.60;5.30;;;24.00;99.90;;;;;;5113085;28;20234;-62
2022/07/25 05:59:03;;;;;;;6.47;4.90;;;24.10;99.90;;;;;;5112930;28;20271;-61
2022/07/25 06:01:30;;;;;;;7.57;5.00;;;24.20;99.90;;;;;;5112182;27;20218;-62
2022/07/25 06:03:57;;;;;;;5.47;4.87;;;24.30;99.90;;;;;;5112241;28;20208;-61
2022/07/25 06:06:24;;;;;;;7.27;5.13;;;24.40;99.90;;;;;;5111993;28;20195;-61
2022/07/25 06:08:51;;;;;;;6.00;4.83;;;24.40;99.90;;;;;;5111008;28;20212;-61
2022/07/25 06:11:17;;;;;;;8.23;5.10;;;24.60;99.90;;;;;;5112199;28;20210;-61
2022/07/25 06:13:45;;;;;;;7.87;4.77;;;24.60;99.90;;;;;;5112562;28;20203;-61
2022/07/25 06:16:12;;;;;;;6.13;4.90;;;24.70;99.90;;;;;;5111944;28;20239;-61
2022/07/25 06:18:38;;;;;;;8.20;5.17;;;24.60;99.90;;;;;;5112172;27;20272;-61
2022/07/25 06:21:06;;;;;;;5.83;5.13;;;24.70;99.90;;;;;;5111963;28;20284;-61
2022/07/25 06:23:32;;;;;;;5.50;4.70;;;24.70;99.90;;;;;;5112197;27;20310;-61
2022/07/25 06:25:59;;;;;;;6.70;5.00;;;24.60;99.90;;;;;;5112315;28;20689;-61
2022/07/25 06:28:26;;;;;;;5.87;5.13;;;24.60;99.90;;;;;;5110443;27;20670;-60
2022/07/25 06:30:54;;;;;;;5.33;4.83;;;24.70;99.90;;;;;;5112008;28;20593;-61
2022/07/25 06:33:21;;;;;;;6.93;4.67;;;24.60;99.90;;;;;;5111627;28;20207;-62
2022/07/25 06:35:47;;;;;;;6.97;5.30;;;24.60;99.90;;;;;;5112240;28;20641;-62
2022/07/25 06:38:14;;;;;;;5.67;5.03;;;24.60;99.90;;;;;;5112048;28;20204;-62
2022/07/25 06:40:41;;;;;;;8.17;5.20;;;24.60;99.90;;;;;;5111667;28;20231;-61
2022/07/25 06:43:07;;;;;;;8.40;4.93;;;24.60;99.90;;;;;;5110441;28;20204;-60
2022/07/25 06:45:34;;;;;;;6.70;4.70;;;24.80;99.90;;;;;;5111551;28;20210;-60
2022/07/25 06:48:02;;;;;;;7.93;5.63;;;24.80;99.90;;;;;;5111519;28;20204;-61
2022/07/25 06:50:30;;;;;;;5.80;4.87;;;24.80;99.90;;;;;;5111377;28;20228;-61
2022/07/25 06:52:57;;;;;;;5.17;4.67;;;24.90;99.90;;;;;;5111758;28;20215;-60
2022/07/25 06:55:23;;;;;;;6.50;4.93;;;25.00;99.90;;;;;;5111880;28;20265;-60
2022/07/25 06:57:50;;;;;;;5.60;4.80;;;25.10;99.90;;;;;;5111098;28;20211;-60
2022/07/25 07:00:17;;;;;;;7.80;5.43;;;25.20;99.90;;;;;;5111576;28;20276;-60
2022/07/25 07:02:54;;;;;;;7.70;5.30;;;25.40;99.90;;;;;;5111400;28;20214;-60
2022/07/25 07:05:23;;;;;;;5.47;4.73;;;25.50;99.90;;;;;;5112012;28;20774;-57
2022/07/25 07:07:49;;;;;;;7.33;5.33;;;25.50;99.90;;;;;;5111093;28;20211;-62
2022/07/25 07:10:16;;;;;;;6.30;4.70;;;25.60;99.90;;;;;;5111468;28;20230;-60
2022/07/25 07:12:43;;;;;;;9.07;5.30;;;25.70;99.90;;;;;;5111303;28;20868;-61
2022/07/25 07:15:11;;;;;;;6.33;4.80;;;25.60;99.90;;;;;;5113922;28;20581;-62
2022/07/25 07:17:38;;;;;;;5.60;4.63;;;25.60;99.90;;;;;;5115406;28;20573;-59
2022/07/25 07:20:06;;;;;;;9.70;4.73;;;25.70;99.90;;;;;;5115226;28;20234;-63
2022/07/25 07:22:43;;;;;;;7.40;5.70;;;25.60;99.90;;;;;;5116024;28;20214;-61
2022/07/25 07:25:12;;;;;;;6.00;5.00;;;25.50;99.90;;;;;;5115640;28;20286;-61
2022/07/25 07:27:38;;;;;;;6.70;5.37;;;25.60;99.90;;;;;;5115182;28;20211;-61
2022/07/25 07:30:06;;;;;;;8.83;5.20;;;25.50;99.90;;;;;;5115351;28;20375;-60
2022/07/25 07:32:33;;;;;;;6.67;5.03;;;25.50;99.90;;;;;;5115835;28;20237;-61
2022/07/25 07:34:59;;;;;;;9.50;5.53;;;25.50;99.90;;;;;;5115708;28;20203;-61
2022/07/25 07:37:27;;;;;;;6.20;4.73;;;25.50;99.90;;;;;;5114953;28;20231;-63
2022/07/25 07:39:55;;;;;;;7.93;5.00;;;25.60;99.90;;;;;;5114862;28;20673;-63
2022/07/25 07:42:21;;;;;;;6.27;5.43;;;25.70;99.90;;;;;;5115304;28;20204;-63
2022/07/25 07:44:48;;;;;;;6.87;4.90;;;25.70;99.90;;;;;;5115360;27;20699;-62
2022/07/25 07:47:15;;;;;;;6.70;5.60;;;25.80;99.90;;;;;;5114388;28;20195;-62
2022/07/25 07:49:41;;;;;;;6.40;5.40;;;25.60;99.90;;;;;;5115281;28;20231;-62
2022/07/25 07:52:09;;;;;;;7.37;5.30;;;25.80;99.90;;;;;;5115398;28;20203;-62
2022/07/25 07:57:21;;;;;;;8.30;4.90;;;26.10;99.90;;;;;;5114981;28;20324;-65
2022/07/25 07:59:48;;;;;;;6.27;5.07;;;26.30;99.90;;;;;;5114736;28;20315;-64
2022/07/25 08:02:15;;;;;;;6.97;5.33;;;26.50;99.90;;;;;;5115145;28;20199;-63
2022/07/25 08:04:41;;;;;;;8.17;5.17;;;26.50;99.90;;;;;;5114615;28;20203;-66
2022/07/25 08:07:08;;;;;;;8.77;5.23;;;26.70;99.90;;;;;;5114425;28;20199;-65
2022/07/25 08:09:35;;;;;;;7.37;5.03;;;27.10;99.90;;;;;;5114114;28;20231;-62
2022/07/25 08:12:01;;;;;;;6.57;5.23;;;27.40;99.90;;;;;;5115045;28;20207;-63
2022/07/25 08:14:29;;;;;;;6.43;5.03;;;27.70;99.90;;;;;;5114903;28;20203;-65
2022/07/25 08:16:57;;;;;;;7.50;5.90;;;27.90;99.90;;;;;;5114069;28;20284;-64
2022/07/25 08:19:24;;;;;;;5.77;5.10;;;28.00;99.90;;;;;;5114192;28;20253;-63
2022/07/25 08:21:50;;;;;;;5.53;4.97;;;27.90;99.90;;;;;;5114068;28;20738;-63
2022/07/25 08:24:17;;;;;;;8.47;5.20;;;27.90;99.90;;;;;;5114385;28;20208;-63
2022/07/25 08:26:44;;;;;;;7.73;5.53;;;28.00;99.90;;;;;;5113843;28;20207;-64
2022/07/25 08:29:10;;;;;;;6.27;4.77;;;28.00;99.90;;;;;;5114432;28;20207;-66
2022/07/25 08:31:38;;;;;;;6.43;4.90;;;28.00;99.90;;;;;;5114138;28;20207;-65
2022/07/25 08:34:05;;;;;;;6.77;5.37;;;28.00;99.90;;;;;;5114371;28;20243;-64
2022/07/25 08:36:32;;;;;;;7.53;5.17;;;28.10;99.90;;;;;;5113875;28;20220;-63
2022/07/25 08:38:58;;;;;;;8.73;4.97;;;28.30;99.90;;;;;;5114310;28;20208;-64
2022/07/25 08:41:25;;;;;;;5.80;5.17;;;28.40;99.90;;;;;;5114316;28;20208;-64
2022/07/25 08:43:52;;;;;;;6.60;5.40;;;28.30;99.90;;;;;;5113927;28;20215;-64
2022/07/25 08:46:19;;;;;;;5.77;5.13;;;28.30;99.90;;;;;;5114002;28;20203;-64
2022/07/25 08:48:47;;;;;;;8.80;5.23;;;28.10;99.90;;;;;;5114321;28;20216;-65
2022/07/25 08:51:15;;;;;;;7.63;5.40;;;28.20;99.90;;;;;;5113685;27;20234;-64
2022/07/25 08:53:42;;;;;;;7.03;4.80;;;28.30;99.90;;;;;;5114272;27;20216;-65
2022/07/25 08:56:09;;;;;;;6.80;5.30;;;28.40;99.90;;;;;;5113349;28;20223;-62
2022/07/25 08:58:36;;;;;;;6.80;5.03;;;28.20;99.90;;;;;;5113879;28;20210;-61
2022/07/25 09:01:03;;;;;;;5.77;5.17;;;28.10;99.90;;;;;;5113366;28;20281;-61
2022/07/25 09:03:30;;;;;;;8.47;5.50;;;28.00;99.90;;;;;;5113596;27;20252;-62
2022/07/25 09:05:59;;;;;;;7.07;5.23;;;27.90;99.90;;;;;;5113641;28;20583;-62
2022/07/25 09:08:26;;;;;;;7.80;5.10;;;27.90;99.90;;;;;;5113686;28;20298;-61
2022/07/25 09:10:53;;;;;;;8.03;5.73;;;27.70;99.90;;;;;;5113612;28;20223;-61
2022/07/25 09:13:22;;;;;;;8.03;5.37;;;27.90;99.90;;;;;;5113349;28;20252;-63
2022/07/25 09:15:51;;;;;;;8.67;5.83;;;28.00;99.90;;;;;;5113756;28;20276;-62
2022/07/25 09:18:22;;;;;;;5.80;5.20;;;28.10;99.90;;;;;;5113100;28;20215;-64
2022/07/25 09:20:50;;;;;;;7.73;5.30;;;28.00;99.90;;;;;;5113171;28;20653;-64
2022/07/25 09:23:30;;;;;;;6.63;5.43;;;28.00;99.90;;;;;;5113362;28;20204;-64
2022/07/25 09:26:03;;;;;;;8.50;5.23;;;28.20;99.90;;;;;;5113088;28;20211;-64
2022/07/25 09:28:30;;;;;;;6.23;4.93;;;28.30;99.90;;;;;;5113071;28;20238;-64
2022/07/25 09:30:58;;;;;;;8.17;5.37;;;28.40;99.90;;;;;;5112913;28;20223;-64
2022/07/25 09:33:26;;;;;;;9.20;4.97;;;28.60;99.90;;;;;;5113016;28;20235;-66
2022/07/25 09:35:54;;;;;;;7.57;4.90;;;28.60;99.90;;;;;;5112537;28;20207;-63
2022/07/25 09:38:22;;;;;;;6.50;5.27;;;28.80;99.90;;;;;;5112273;28;20574;-67
2022/07/25 09:41:01;;;;;;;7.10;6.00;;;28.70;99.90;;;;;;5112094;28;20232;-66
2022/07/25 09:43:37;;;;;;;7.23;5.73;;;28.70;99.90;;;;;;5112964;27;20204;-66
2022/07/25 09:46:05;;;;;;;10.77;5.63;;;28.70;99.90;;;;;;5112451;28;20738;-66
2022/07/25 09:48:32;;;;;;;7.03;5.40;;;28.90;99.90;;;;;;5112789;27;20203;-65
2022/07/25 09:50:58;;;;;;;9.20;5.40;;;28.90;99.90;;;;;;5112442;28;20713;-67
2022/07/25 09:53:25;;;;;;;11.03;5.60;;;29.00;99.90;;;;;;5112144;28;20200;-65
2022/07/25 09:55:53;;;;;;;7.87;5.60;;;28.90;99.90;;;;;;5112515;28;20211;-63
2022/07/25 09:58:22;;;;;;;6.40;5.47;;;28.90;99.90;;;;;;5112382;28;20268;-65
2022/07/25 10:00:49;;;;;;;7.37;5.43;;;28.80;99.90;;;;;;5112487;28;20230;-67
2022/07/25 10:03:20;;;;;;;6.30;5.10;;;28.70;99.90;;;;;;5112525;28;20200;-66
2022/07/25 10:06:02;;;;;;;8.23;4.90;;;28.60;99.90;;;;;;5112211;28;20593;-68
2022/07/25 10:08:29;;;;;;;6.43;5.00;;;28.70;99.90;;;;;;5112563;28;20249;-65
2022/07/25 10:10:56;;;;;;;8.03;4.93;;;28.80;99.90;;;;;;5112147;28;20223;-65
2022/07/25 10:13:33;;;;;;;5.57;4.93;;;29.00;99.90;;;;;;5112640;28;20215;-66
2022/07/25 10:15:59;;;;;;;5.70;4.70;;;28.90;99.90;;;;;;5111778;27;20203;-66
2022/07/25 10:18:27;;;;;;;7.37;5.30;;;28.80;99.90;;;;;;5111743;28;20219;-67
2022/07/25 10:21:07;;;;;;;7.70;5.37;;;28.70;99.90;;;;;;5111882;28;20227;-65
2022/07/25 10:23:34;;;;;;;9.17;5.60;;;28.70;99.90;;;;;;5112164;28;20622;-67
2022/07/25 10:26:06;;;;;;;6.80;5.07;;;28.50;99.90;;;;;;5111648;28;20229;-66
2022/07/25 10:28:54;;;;;;;6.17;5.37;;;28.30;99.90;;;;;;5110416;28;20246;-66
2022/07/25 10:31:23;;;;;;;8.03;5.27;;;28.10;99.90;;;;;;5109822;28;20199;-65
2022/07/25 10:33:55;;;;;;;9.13;5.83;;;27.90;99.90;;;;;;5112040;28;20798;-67
2022/07/25 10:36:23;;;;;;;6.83;5.90;;;27.80;99.90;;;;;;5111541;28;20799;-66
2022/07/25 10:38:52;;;;;;;8.87;5.47;;;27.60;99.90;;;;;;5112175;28;20203;-66
2022/07/25 10:41:20;;;;;;;6.83;5.30;;;27.50;99.90;;;;;;5111615;28;20267;-65
2022/07/25 10:43:50;;;;;;;7.70;5.77;;;27.40;99.90;;;;;;5110321;28;20204;-65
2022/07/25 10:46:21;;;;;;;6.33;5.30;;;27.40;99.90;;;;;;5111540;28;20210;-64
2022/07/25 10:48:58;;;;;;;8.50;5.73;;;27.40;99.90;;;;;;5111835;27;20208;-64
2022/07/25 10:51:27;;;;;;;8.77;5.57;;;27.40;99.90;;;;;;5111680;28;20207;-63
2022/07/25 10:53:54;;;;;;;8.67;5.60;;;27.50;99.90;;;;;;5111730;28;20219;-63
2022/07/25 10:56:22;;;;;;;8.57;5.33;;;27.40;99.90;;;;;;5111146;28;20207;-62
2022/07/25 10:58:51;;;;;;;8.70;6.20;;;27.40;99.90;;;;;;5111890;28;20252;-66
2022/07/25 11:01:24;;;;;;;7.03;5.67;;;27.50;99.90;;;;;;5111537;28;20248;-66
2022/07/25 11:03:53;;;;;;;8.33;5.77;;;27.70;99.90;;;;;;5112864;28;20202;-65
2022/07/25 11:06:31;;;;;;;9.93;5.87;;;28.00;99.90;;;;;;5110696;28;20210;-64
2022/07/25 11:08:59;;;;;;;6.17;5.50;;;28.20;99.90;;;;;;5111432;28;20207;-65
2022/07/25 11:11:34;;;;;;;7.03;5.50;;;28.10;99.90;;;;;;5111127;28;20298;-65
2022/07/25 11:14:01;;;;;;;8.87;6.77;;;27.90;99.90;;;;;;5111782;28;20206;-64
2022/07/25 11:16:29;;;;;;;9.30;5.97;;;27.70;99.90;;;;;;5111172;28;20590;-65
2022/07/25 11:18:56;;;;;;;10.73;6.17;;;27.80;99.90;;;;;;5111122;28;20264;-65
2022/07/25 11:21:23;;;;;;;8.57;6.30;;;27.70;99.90;;;;;;5111438;28;20208;-64
2022/07/25 11:23:51;;;;;;;7.17;6.47;;;28.00;99.90;;;;;;5111576;28;20268;-65
2022/07/25 11:26:17;;;;;;;9.27;5.90;;;28.00;99.90;;;;;;5111320;28;20264;-63
2022/07/25 11:28:45;;;;;;;6.43;5.20;;;28.20;99.90;;;;;;5111098;28;20734;-66
2022/07/25 11:31:14;;;;;;;5.60;5.00;;;28.40;99.90;;;;;;5111114;28;20236;-65
2022/07/25 11:33:44;;;;;;;5.27;4.63;;;28.60;99.90;;;;;;5110993;28;20231;-65
2022/07/25 11:36:11;;;;;;;8.63;5.00;;;28.50;99.90;;;;;;5111039;28;20200;-65
2022/07/25 11:38:39;;;;;;;5.27;4.40;;;28.30;99.90;;;;;;5111262;28;20235;-65
2022/07/25 11:41:07;;;;;;;5.10;4.10;;;28.50;99.90;;;;;;5110946;28;20231;-65
2022/07/25 11:43:33;;;;;;;6.07;4.37;;;28.50;99.90;;;;;;5110988;28;20589;-65
2022/07/25 11:46:02;;;;;;;6.87;4.33;;;28.40;99.90;;;;;;5110436;28;20208;-67
2022/07/25 11:48:32;;;;;;;4.33;3.70;;;28.30;99.90;;;;;;5111536;28;20208;-66
2022/07/25 11:51:12;;;;;;;5.43;3.63;;;28.40;99.90;;;;;;5110954;28;20231;-65
2022/07/25 11:53:40;;;;;;;7.10;4.37;;;28.60;99.90;;;;;;5111000;28;20575;-65
2022/07/25 11:56:18;;;;;;;8.03;3.80;;;28.70;99.90;;;;;;5110867;28;20208;-64
2022/07/25 11:58:57;;;;;;;6.90;3.83;;;28.70;99.90;;;;;;5111018;28;20234;-64
2022/07/25 12:01:24;;;;;;;7.70;3.70;;;28.50;99.90;;;;;;5113601;28;20298;-64
2022/07/25 12:03:51;;;;;;;5.80;4.03;;;28.20;99.90;;;;;;5114897;28;20294;-65
2022/07/25 12:06:19;;;;;;;5.40;3.83;;;28.10;99.90;;;;;;5114612;28;20642;-64
2022/07/25 12:08:46;;;;;;;5.93;3.70;;;28.10;99.90;;;;;;5114626;28;20623;-63
2022/07/25 12:11:17;;;;;;;6.93;3.50;;;28.20;99.90;;;;;;5114382;28;20231;-65
2022/07/25 12:13:44;;;;;;;6.47;3.57;;;28.30;99.90;;;;;;5114444;28;20207;-65
2022/07/25 12:16:10;;;;;;;5.93;3.53;;;28.40;99.90;;;;;;5114511;28;20212;-66
2022/07/25 12:18:38;;;;;;;8.33;3.60;;;28.50;99.90;;;;;;5114580;28;20268;-66
2022/07/25 12:21:05;;;;;;;5.20;3.27;;;28.50;99.90;;;;;;5114414;28;20253;-67
2022/07/25 12:23:34;;;;;;;7.87;3.40;;;28.50;99.90;;;;;;5114346;28;20207;-65
2022/07/25 12:26:01;;;;;;;3.97;3.37;;;28.40;99.90;;;;;;5114414;28;20204;-65
2022/07/25 12:28:27;;;;;;;7.40;3.40;;;27.90;99.90;;;;;;5115033;28;20223;-65
2022/07/25 12:30:54;;;;;;;5.90;3.70;;;27.90;99.90;;;;;;5114228;28;20255;-64
2022/07/25 12:33:21;;;;;;;5.27;3.87;;;28.10;99.90;;;;;;5114200;28;20204;-66
2022/07/25 12:35:47;;;;;;;5.13;3.80;;;27.80;99.90;;;;;;5114601;28;20218;-65
2022/07/25 12:38:14;;;;;;;5.33;3.40;;;27.80;99.90;;;;;;5113194;28;20700;-65
2022/07/25 12:40:42;;;;;;;9.03;5.87;;;27.90;99.90;;;;;;5114032;28;20231;-64
2022/07/25 12:43:09;;;;;;;8.30;4.10;;;28.00;99.90;;;;;;5113809;28;20821;-64
2022/07/25 12:45:36;;;;;;;6.90;3.37;;;28.10;99.90;;;;;;5113989;28;20200;-64
2022/07/25 12:48:02;;;;;;;5.93;3.17;;;28.30;99.90;;;;;;5113881;28;20204;-64
2022/07/25 12:50:29;;;;;;;5.17;3.77;;;28.40;99.90;;;;;;5113431;28;20231;-67